Hovedside
METAR-TAF:

METAR-TAF

Lufthavner :

Haugesund lufthavn. Karmøy

Haugesund, Norge

breddegrad: 59-21N, lengdegrad: 005-13E, høyde over havet: 2 m

Gjeldene værobservasjon

Denne rapporten ble laget for 32 minutter siden, klokken 09:50 UTC
Vind 6 kt fra Vest
Temperatur 6°C
Luftfuktighet 75%
Trykk 1034 hPa
Sikt 10 km eller mer
Spredte skyer i en høyde av 3700 ft
Brutte skyer i en høyde av 7400 ft

METAR: ENHD 190950Z 27006KT 9999 SCT037 BKN074 06/02 Q1034

Tid: 11:22 (10:22 UTC)

Varsel

Denne rapporten ble laget for 2 timer og 22 minutter siden, klokken 08:00 UTC
Varsel gyldig fra 19. klokken 09 UTC til 19. klokken 18 UTC
Vind 10 kt fra Nordvest
Sikt 10 km eller mer
Få skyer i en høyde av 2000 ft, Tårnskyer (cumulus).
Spredte skyer i en høyde av 4000 ft
lette regnbyger

TAF: ENHD 190800Z 1909/1918 32010KT 9999 -SHRA FEW020TCU SCT040

Værobservasjoner og værvarsel for over 4000 flyplasser (METAR- og TAF-rapporter).

Tilgjengelige stasjoner er representert av de røde og gule prikkene på kartet.

Hold musepekeren over prikken for å se navnet på stasjonen.

Klikk så for å se værobservasjoner og -varsler.

For å forandre kartet kan du klikke på den grønne knappen med svart kryss for å zoome inn, på den grønne knappen med strek for å zoome ut, eller på de grønne pilene for å se tilstøtende kart.


METAR-TAF: